createdAt,value
2018-03-15T00:02:15.850Z,67.74
2018-03-15T00:05:39.126Z,67.63
2018-03-15T00:09:02.404Z,67.78
2018-03-15T00:12:26.539Z,67.26
2018-03-15T00:15:50.586Z,66.89
2018-03-15T00:19:14.630Z,66.81
2018-03-15T00:22:42.806Z,66.43
2018-03-15T00:26:06.227Z,66.83
2018-03-15T00:29:30.343Z,67.25
2018-03-15T00:32:53.643Z,68.00
2018-03-15T00:36:16.949Z,68.01
2018-03-15T00:39:41.094Z,67.75
2018-03-15T00:43:05.078Z,67.43
2018-03-15T00:46:30.111Z,68.08
2018-03-15T00:49:53.421Z,67.68
2018-03-15T00:53:16.686Z,67.72
2018-03-15T00:56:39.963Z,67.86
2018-03-15T01:00:03.276Z,68.25
2018-03-15T01:03:26.578Z,68.55
2018-03-15T01:06:50.619Z,68.55
2018-03-15T01:10:14.737Z,68.95
2018-03-15T01:13:38.019Z,69.26
2018-03-15T01:17:02.072Z,68.94
2018-03-15T01:20:25.368Z,68.97
2018-03-15T01:23:49.407Z,68.97
2018-03-15T01:27:13.461Z,69.20
2018-03-15T01:30:36.739Z,69.42
2018-03-15T01:34:00.013Z,69.63
2018-03-15T01:37:23.389Z,69.70
2018-03-15T01:40:46.812Z,69.58
2018-03-15T01:44:10.869Z,70.04
2018-03-15T01:47:35.575Z,69.83
2018-03-15T01:50:58.840Z,69.73
2018-03-15T01:54:22.960Z,69.87
2018-03-15T01:57:47.094Z,70.07
2018-03-15T02:01:10.465Z,70.02
2018-03-15T02:04:33.947Z,70.44
2018-03-15T02:07:58.028Z,70.91
2018-03-15T02:11:22.159Z,70.75
2018-03-15T02:14:45.529Z,70.83
2018-03-15T02:18:10.029Z,70.97
2018-03-15T02:21:33.321Z,71.21
2018-03-15T02:24:56.667Z,71.37
2018-03-15T02:28:20.731Z,71.36
2018-03-15T02:31:44.943Z,71.48
2018-03-15T02:35:08.219Z,71.96
2018-03-15T02:38:32.363Z,71.82
2018-03-15T02:41:56.425Z,72.23
2018-03-15T02:45:19.758Z,72.08
2018-03-15T02:48:43.126Z,71.83
2018-03-15T02:52:07.177Z,72.06
2018-03-15T02:55:31.261Z,72.49
2018-03-15T02:58:55.342Z,72.55
2018-03-15T03:02:18.614Z,72.47
2018-03-15T03:05:42.646Z,72.49
2018-03-15T03:09:06.726Z,72.56
2018-03-15T03:12:30.026Z,72.80
2018-03-15T03:15:53.291Z,72.05
2018-03-15T03:19:16.632Z,72.64
2018-03-15T03:22:40.003Z,72.81
2018-03-15T03:26:03.372Z,73.13
2018-03-15T03:29:26.737Z,72.96
2018-03-15T03:32:50.053Z,72.73
2018-03-15T03:36:13.394Z,72.48
2018-03-15T03:39:37.454Z,72.25
2018-03-15T03:43:00.734Z,72.31
2018-03-15T03:46:24.140Z,71.94
2018-03-15T03:49:48.255Z,71.56
2018-03-15T03:53:12.310Z,71.72
2018-03-15T03:56:36.350Z,72.21
2018-03-15T03:59:59.662Z,72.28
2018-03-15T04:03:23.700Z,71.94
2018-03-15T04:06:47.023Z,72.45
2018-03-15T04:10:10.277Z,71.61
2018-03-15T04:13:34.329Z,71.40
2018-03-15T04:16:57.669Z,72.40
2018-03-15T04:20:20.964Z,72.31
2018-03-15T04:23:44.351Z,72.85
2018-03-15T04:27:07.692Z,72.86
2018-03-15T04:30:31.748Z,72.65
2018-03-15T04:33:55.027Z,72.51
2018-03-15T04:37:18.298Z,72.52
2018-03-15T04:40:41.597Z,72.52
2018-03-15T04:44:04.875Z,72.41
2018-03-15T04:47:28.168Z,72.23
2018-03-15T04:50:52.225Z,72.39
2018-03-15T04:54:15.533Z,72.35
2018-03-15T04:57:38.862Z,72.53
2018-03-15T05:01:02.171Z,73.29
2018-03-15T05:04:25.451Z,73.22
2018-03-15T05:07:48.759Z,73.06
2018-03-15T05:11:12.104Z,72.43
2018-03-15T05:14:35.475Z,72.78
2018-03-15T05:17:59.536Z,72.71
2018-03-15T05:21:22.807Z,72.76
2018-03-15T05:24:46.091Z,72.87
2018-03-15T05:28:09.467Z,72.39
2018-03-15T05:31:32.837Z,71.74
2018-03-15T05:34:56.207Z,72.01
2018-03-15T05:38:19.547Z,72.18
2018-03-15T05:41:42.850Z,72.05
2018-03-15T05:45:06.265Z,71.96
2018-03-15T05:48:30.334Z,71.43
2018-03-15T05:51:53.789Z,71.73
2018-03-15T05:55:17.893Z,72.01
2018-03-15T05:58:41.215Z,72.44
2018-03-15T06:02:04.502Z,71.97
2018-03-15T06:05:27.787Z,71.87
2018-03-15T06:08:51.880Z,71.80
2018-03-15T06:12:15.946Z,71.60
2018-03-15T06:15:40.044Z,71.86
2018-03-15T06:19:04.080Z,71.72
2018-03-15T06:22:28.204Z,70.71
2018-03-15T06:25:51.577Z,70.81
2018-03-15T06:29:15.628Z,69.99
2018-03-15T06:32:39.677Z,70.07
2018-03-15T06:36:04.155Z,70.52
2018-03-15T06:39:28.231Z,70.20
2018-03-15T06:42:51.515Z,69.91
2018-03-15T06:46:15.585Z,70.43
2018-03-15T06:49:38.874Z,70.77
2018-03-15T06:53:02.959Z,70.64
2018-03-15T06:56:26.997Z,71.38
2018-03-15T06:59:50.349Z,70.71
2018-03-15T07:03:13.632Z,70.69
2018-03-15T07:06:37.694Z,70.37
2018-03-15T07:10:00.997Z,70.11
2018-03-15T07:13:24.259Z,69.41
2018-03-15T07:16:48.281Z,70.07
2018-03-15T07:20:12.361Z,69.53
2018-03-15T07:23:35.731Z,69.60
2018-03-15T07:26:59.105Z,69.77
2018-03-15T07:30:22.474Z,68.91
2018-03-15T07:33:45.763Z,68.48
2018-03-15T07:37:09.032Z,67.88
2018-03-15T07:40:32.309Z,67.27
2018-03-15T07:43:55.648Z,66.98
2018-03-15T07:47:18.950Z,66.87
2018-03-15T07:50:42.222Z,66.21
2018-03-15T07:54:05.637Z,65.81
2018-03-15T07:57:28.964Z,65.54
2018-03-15T08:00:52.250Z,65.33
2018-03-15T08:04:16.296Z,65.11
2018-03-15T08:07:39.646Z,64.93
2018-03-15T08:11:02.996Z,64.34
2018-03-15T08:14:26.506Z,64.16
2018-03-15T08:17:50.671Z,64.04
2018-03-15T08:21:13.981Z,63.48
2018-03-15T08:24:37.289Z,63.28
2018-03-15T08:28:00.637Z,62.55
2018-03-15T08:31:23.922Z,62.65
2018-03-15T08:34:48.089Z,62.56
2018-03-15T08:38:11.450Z,62.07
2018-03-15T08:41:34.816Z,61.75
2018-03-15T08:44:58.096Z,60.92
2018-03-15T08:48:21.474Z,59.80
2018-03-15T08:51:46.321Z,59.31
2018-03-15T08:55:09.726Z,59.91
2018-03-15T08:58:33.768Z,59.33
2018-03-15T09:01:57.137Z,58.68
2018-03-15T09:05:20.466Z,57.98
2018-03-15T09:08:43.879Z,57.88
2018-03-15T09:12:07.962Z,57.66
2018-03-15T09:15:31.283Z,56.78
2018-03-15T09:18:54.751Z,56.96
2018-03-15T09:22:18.911Z,56.36
2018-03-15T09:25:43.049Z,56.82
2018-03-15T09:29:06.508Z,56.89
2018-03-15T09:32:30.573Z,57.07
2018-03-15T09:35:54.675Z,57.53
2018-03-15T09:39:18.068Z,57.88
2018-03-15T09:42:42.678Z,58.06
2018-03-15T09:46:07.194Z,57.77
2018-03-15T09:49:32.841Z,58.12
2018-03-15T09:52:58.569Z,58.10
2018-03-15T09:56:23.589Z,57.89
2018-03-15T09:59:48.751Z,58.10
2018-03-15T10:03:12.091Z,58.77
2018-03-15T10:06:36.093Z,58.95
2018-03-15T10:09:59.956Z,58.73
2018-03-15T10:13:23.856Z,58.25
2018-03-15T10:16:49.061Z,58.34
2018-03-15T10:20:12.598Z,58.79
2018-03-15T10:23:38.385Z,58.14
2018-03-15T10:27:13.803Z,58.45
2018-03-15T10:30:37.856Z,58.73
2018-03-15T10:34:02.927Z,58.43
2018-03-15T10:37:27.055Z,58.06
2018-03-15T10:40:51.525Z,57.60
2018-03-15T10:44:14.982Z,57.18
2018-03-15T10:47:39.102Z,56.94
2018-03-15T10:51:03.936Z,56.42
2018-03-15T10:54:28.803Z,57.44
2018-03-15T10:57:55.221Z,56.68
2018-03-15T11:01:22.643Z,57.16
2018-03-15T11:04:52.442Z,57.56
2018-03-15T11:08:23.204Z,56.64
2018-03-15T11:11:47.331Z,56.76
2018-03-15T11:15:12.015Z,57.03
2018-03-15T11:18:36.390Z,56.19
2018-03-15T11:21:59.734Z,56.69
2018-03-15T11:25:27.101Z,56.73
2018-03-15T11:28:51.240Z,56.87
2018-03-15T11:32:14.631Z,56.65
2018-03-15T11:35:41.825Z,56.38
2018-03-15T11:39:06.569Z,56.17
2018-03-15T11:42:29.926Z,56.17
2018-03-15T11:45:53.893Z,55.61
2018-03-15T11:49:18.609Z,54.98
2018-03-15T11:52:42.148Z,54.08
2018-03-15T11:56:06.610Z,53.51
2018-03-15T11:59:30.207Z,52.76
2018-03-15T12:02:55.210Z,52.75
2018-03-15T12:06:20.158Z,52.44
2018-03-15T12:09:45.564Z,52.89
2018-03-15T12:13:09.194Z,51.93
2018-03-15T12:16:34.922Z,51.22
2018-03-15T12:20:00.267Z,50.84
2018-03-15T12:23:25.493Z,48.87
2018-03-15T12:26:48.899Z,48.87
2018-03-15T12:30:12.244Z,47.67
2018-03-15T12:33:35.761Z,48.73
2018-03-15T12:36:59.326Z,48.36
2018-03-15T12:40:22.864Z,48.99
2018-03-15T12:43:47.002Z,48.39
2018-03-15T12:47:11.123Z,47.34
2018-03-15T12:50:34.478Z,46.84
2018-03-15T12:53:57.767Z,46.35
2018-03-15T12:57:21.115Z,46.16
2018-03-15T13:00:46.515Z,45.84
2018-03-15T13:04:10.572Z,46.48
2018-03-15T13:07:33.912Z,45.82
2018-03-15T13:10:57.245Z,46.48
2018-03-15T13:14:21.368Z,45.89
2018-03-15T13:17:44.688Z,45.05
2018-03-15T13:21:08.015Z,44.72
2018-03-15T13:24:31.387Z,44.26
2018-03-15T13:27:54.686Z,43.96
2018-03-15T13:31:17.999Z,43.38
2018-03-15T13:34:42.115Z,43.82
2018-03-15T13:38:05.421Z,43.13
2018-03-15T13:41:28.739Z,41.40
2018-03-15T13:44:52.040Z,40.41
2018-03-15T13:48:16.162Z,40.23
2018-03-15T13:51:39.454Z,40.58
2018-03-15T13:55:02.757Z,40.88
2018-03-15T13:58:26.855Z,40.82
2018-03-15T14:01:50.152Z,39.98
2018-03-15T14:05:14.442Z,38.16
2018-03-15T14:08:37.865Z,38.31
2018-03-15T14:12:01.153Z,39.18
2018-03-15T14:15:24.474Z,39.44
2018-03-15T14:18:48.537Z,40.83
2018-03-15T14:22:11.848Z,41.17
2018-03-15T14:25:35.229Z,40.58
2018-03-15T14:28:59.368Z,39.91
2018-03-15T14:32:22.648Z,39.22
2018-03-15T14:35:46.710Z,40.43
2018-03-15T14:39:10.090Z,40.13
2018-03-15T14:42:33.800Z,39.94
2018-03-15T14:45:57.193Z,40.26
2018-03-15T14:49:20.773Z,42.66
2018-03-15T14:52:46.569Z,42.51
2018-03-15T14:56:10.989Z,43.39
2018-03-15T14:59:34.571Z,43.13
2018-03-15T15:02:59.092Z,43.34
2018-03-15T15:06:22.845Z,43.50
2018-03-15T15:09:46.264Z,43.01
2018-03-15T15:13:10.447Z,43.83
2018-03-15T15:16:33.891Z,43.78
2018-03-15T15:19:57.176Z,43.95
2018-03-15T15:23:20.517Z,42.37
2018-03-15T15:26:44.608Z,42.87
2018-03-15T15:30:08.794Z,43.40
2018-03-15T15:33:32.925Z,44.84
2018-03-15T15:36:56.256Z,46.40
2018-03-15T15:40:20.427Z,46.37
2018-03-15T15:43:45.630Z,46.97
2018-03-15T15:47:09.098Z,46.95
2018-03-15T15:50:33.157Z,48.29
2018-03-15T15:53:56.576Z,47.82
2018-03-15T15:57:20.009Z,47.90
2018-03-15T16:00:43.425Z,47.76
2018-03-15T16:04:07.537Z,47.92
2018-03-15T16:07:30.835Z,48.53
2018-03-15T16:10:55.012Z,48.58
2018-03-15T16:14:18.310Z,48.79
2018-03-15T16:17:41.612Z,50.21
2018-03-15T16:21:05.747Z,51.57
2018-03-15T16:24:29.882Z,52.42
2018-03-15T16:27:53.370Z,53.14
2018-03-15T16:31:17.463Z,53.87
2018-03-15T16:34:41.511Z,54.75
2018-03-15T16:38:04.847Z,55.27
2018-03-15T16:41:28.219Z,55.75
2018-03-15T16:44:51.644Z,55.86
2018-03-15T16:48:15.737Z,56.33
2018-03-15T16:51:39.862Z,57.20
2018-03-15T16:55:03.176Z,57.61
2018-03-15T16:58:26.508Z,57.68
2018-03-15T17:01:50.577Z,58.07
2018-03-15T17:05:14.010Z,57.85
2018-03-15T17:08:37.314Z,57.59
2018-03-15T17:12:00.669Z,57.53
2018-03-15T17:15:24.707Z,58.04
2018-03-15T17:18:49.523Z,58.86
2018-03-15T17:22:13.710Z,59.18
2018-03-15T17:25:37.033Z,59.26
2018-03-15T17:29:00.348Z,59.50
2018-03-15T17:32:23.732Z,59.77
2018-03-15T17:35:47.109Z,60.50
2018-03-15T17:39:10.585Z,60.58
2018-03-15T17:42:34.788Z,61.20
2018-03-15T17:45:58.842Z,61.25
2018-03-15T17:49:22.112Z,61.58
2018-03-15T17:52:45.409Z,61.88
2018-03-15T17:56:09.469Z,61.90
2018-03-15T17:59:34.777Z,61.78
2018-03-15T18:02:59.279Z,61.88
2018-03-15T18:06:23.946Z,62.39
2018-03-15T18:09:48.352Z,62.19
2018-03-15T18:13:12.630Z,61.25
2018-03-15T18:16:36.199Z,62.09
2018-03-15T18:19:59.843Z,61.88
2018-03-15T18:23:26.941Z,61.74
2018-03-15T18:26:50.317Z,62.40
2018-03-15T18:30:13.631Z,62.41
2018-03-15T18:33:36.938Z,63.30
2018-03-15T18:37:00.378Z,64.67
2018-03-15T18:40:24.607Z,65.07
2018-03-15T18:43:48.096Z,65.41
2018-03-15T18:47:13.035Z,65.37
2018-03-15T18:50:36.517Z,65.69
2018-03-15T18:54:01.312Z,63.93
2018-03-15T18:57:24.697Z,66.04
2018-03-15T19:00:48.879Z,65.94
2018-03-15T19:04:12.347Z,66.23
2018-03-15T19:07:35.676Z,66.73
2018-03-15T19:10:59.717Z,66.77
2018-03-15T19:14:23.793Z,67.25
2018-03-15T19:17:47.094Z,67.81
2018-03-15T19:21:10.363Z,68.04
2018-03-15T19:24:33.775Z,67.63
2018-03-15T19:27:57.072Z,67.90
2018-03-15T19:31:21.162Z,68.22
2018-03-15T19:34:45.224Z,68.38
2018-03-15T19:38:08.562Z,67.93
2018-03-15T19:41:31.833Z,70.07
2018-03-15T19:44:55.917Z,69.40
2018-03-15T19:48:20.015Z,69.40
2018-03-15T19:51:44.079Z,71.03
2018-03-15T19:55:07.447Z,72.67
2018-03-15T19:58:30.734Z,71.77
2018-03-15T20:01:54.819Z,72.99
2018-03-15T20:05:18.104Z,72.41
2018-03-15T20:08:41.378Z,73.90
2018-03-15T20:12:04.759Z,73.04
2018-03-15T20:19:19.164Z,74.37
2018-03-15T20:22:48.179Z,74.56
2018-03-15T20:26:12.318Z,74.82
2018-03-15T20:29:36.453Z,74.47
2018-03-15T20:33:06.060Z,74.78
2018-03-15T20:36:30.239Z,73.85
2018-03-15T20:39:59.136Z,74.25
2018-03-15T20:43:22.619Z,75.07
2018-03-15T20:46:51.648Z,75.15
2018-03-15T20:50:15.020Z,74.70
2018-03-15T20:53:38.380Z,75.40
2018-03-15T20:57:02.485Z,75.50
2018-03-15T21:00:25.836Z,75.24
2018-03-15T21:03:49.908Z,74.42
2018-03-15T21:07:14.020Z,73.94
2018-03-15T21:10:38.142Z,73.79
2018-03-15T21:14:02.219Z,74.72
2018-03-15T21:17:25.506Z,75.01
2018-03-15T21:20:49.542Z,74.50
2018-03-15T21:24:13.664Z,74.36
2018-03-15T21:27:36.953Z,73.16
2018-03-15T21:31:00.261Z,73.27
2018-03-15T21:34:24.352Z,71.82
2018-03-15T21:37:49.431Z,71.61
2018-03-15T21:41:12.697Z,70.90
2018-03-15T21:44:36.000Z,70.37
2018-03-15T21:47:59.264Z,70.37
2018-03-15T21:51:23.388Z,69.87
2018-03-15T21:54:46.709Z,69.46
2018-03-15T21:58:10.000Z,70.04
2018-03-15T22:01:33.347Z,70.08
2018-03-15T22:04:56.829Z,69.63
2018-03-15T22:08:20.083Z,69.78
2018-03-15T22:11:43.512Z,69.60
2018-03-15T22:15:06.797Z,69.97
2018-03-15T22:18:30.913Z,70.17
2018-03-15T22:21:54.250Z,68.87
2018-03-15T22:25:18.294Z,69.37
2018-03-15T22:28:42.350Z,68.45
2018-03-15T22:32:05.646Z,68.28
2018-03-15T22:35:29.763Z,68.90
2018-03-15T22:38:53.051Z,68.73
2018-03-15T22:42:16.344Z,68.24
2018-03-15T22:45:39.603Z,68.34
2018-03-15T22:49:02.937Z,68.67
2018-03-15T22:52:26.289Z,68.31
2018-03-15T22:55:49.588Z,68.77
2018-03-15T22:59:13.624Z,69.31
2018-03-15T23:02:37.684Z,69.24
2018-03-15T23:06:01.092Z,69.52
2018-03-15T23:09:25.178Z,69.62
2018-03-15T23:12:49.451Z,69.79
2018-03-15T23:16:12.815Z,69.49
2018-03-15T23:19:36.106Z,69.74
2018-03-15T23:23:00.132Z,69.56
2018-03-15T23:26:24.205Z,69.84
2018-03-15T23:29:47.534Z,69.83
2018-03-15T23:33:10.849Z,69.51
2018-03-15T23:36:34.123Z,69.49
2018-03-15T23:39:58.198Z,69.14
2018-03-15T23:43:21.481Z,69.44
2018-03-15T23:46:45.532Z,69.69
2018-03-15T23:50:08.880Z,69.22
2018-03-15T23:53:32.248Z,68.41
2018-03-15T23:56:55.533Z,68.29
